Time;durP1;ratioP1;P1;durP2;ratioP2;P2;SDS_P1;SDS_P2;PMS_P1;PMS_P2;Temp;Humidity;BMP_temperature;BMP_pressure;BME280_temperature;BME280_humidity;BME280_pressure;Samples;Min_cycle;Max_cycle;Signal;HPM_P1;HPM_P2
2022/05/11 00:00:19;;;;;;;10.32;5.68;;;14.50;99.90;;;;;;4975168;29;20079;-91
2022/05/11 00:02:45;;;;;;;9.85;5.40;;;14.50;99.90;;;;;;4954273;29;20133;-91
2022/05/11 00:05:12;;;;;;;7.65;5.03;;;14.50;99.90;;;;;;4949502;29;20043;-90
2022/05/11 00:07:38;;;;;;;10.80;5.90;;;14.50;99.90;;;;;;4951809;29;20602;-91
2022/05/11 00:10:11;;;;;;;8.48;4.97;;;14.50;99.90;;;;;;4951387;29;20050;-92
2022/05/11 00:12:39;;;;;;;9.93;5.40;;;14.50;99.90;;;;;;4950036;29;20479;-91
2022/05/11 00:15:05;;;;;;;9.98;5.53;;;14.50;99.90;;;;;;4928938;29;20051;-92
2022/05/11 00:17:31;;;;;;;8.98;5.38;;;14.50;99.90;;;;;;4951052;29;20512;-92
2022/05/11 00:19:56;;;;;;;9.65;4.95;;;14.50;99.90;;;;;;4950268;29;20089;-91
2022/05/11 00:22:22;;;;;;;11.52;5.22;;;14.50;99.90;;;;;;4918558;29;20094;-91
2022/05/11 00:24:47;;;;;;;9.35;5.35;;;14.50;99.90;;;;;;4951551;29;20079;-91
2022/05/11 00:27:13;;;;;;;8.60;4.82;;;14.50;99.90;;;;;;4917956;29;20051;-91
2022/05/11 00:29:38;;;;;;;8.18;5.00;;;14.50;99.90;;;;;;4928439;29;20055;-91
2022/05/11 00:32:04;;;;;;;9.68;5.50;;;14.50;99.90;;;;;;4906965;29;20051;-91
2022/05/11 00:34:30;;;;;;;8.50;4.90;;;14.50;99.90;;;;;;4921690;29;20043;-91
2022/05/11 00:36:57;;;;;;;9.05;5.00;;;14.40;99.90;;;;;;4918497;29;20047;-91
2022/05/11 00:39:23;;;;;;;8.25;4.75;;;14.50;99.90;;;;;;4934145;29;20047;-89
2022/05/11 00:41:48;;;;;;;9.55;5.28;;;14.50;99.90;;;;;;4950918;29;20493;-90
2022/05/11 00:44:14;;;;;;;9.07;5.50;;;14.40;99.90;;;;;;4933105;29;20429;-90
2022/05/11 00:46:58;;;;;;;10.68;5.22;;;14.40;99.90;;;;;;4946598;29;20047;-90
2022/05/11 00:49:48;;;;;;;9.05;4.75;;;14.40;99.90;;;;;;4951730;29;20228;-90
2022/05/11 00:52:32;;;;;;;9.93;5.60;;;14.40;99.90;;;;;;4951213;29;20090;-91
2022/05/11 00:55:00;;;;;;;9.38;5.20;;;14.40;99.90;;;;;;4933713;29;20051;-90
2022/05/11 00:57:36;;;;;;;9.45;5.45;;;14.40;99.90;;;;;;4932814;29;20047;-89
2022/05/11 01:00:05;;;;;;;9.18;5.53;;;14.30;99.90;;;;;;4949085;29;20043;-91
2022/05/11 01:02:31;;;;;;;9.77;5.25;;;14.30;99.90;;;;;;4931631;29;20047;-89
2022/05/11 01:05:00;;;;;;;10.82;5.95;;;14.30;99.90;;;;;;4950737;29;20166;-91
2022/05/11 01:07:27;;;;;;;10.80;5.68;;;14.20;99.90;;;;;;4933844;29;20048;-90
2022/05/11 01:09:53;;;;;;;8.65;5.70;;;14.20;99.90;;;;;;4950607;29;20126;-90
2022/05/11 01:12:21;;;;;;;10.50;5.45;;;14.20;99.90;;;;;;4945097;29;20131;-91
2022/05/11 01:14:51;;;;;;;10.32;5.88;;;14.20;99.90;;;;;;4933851;29;20102;-90
2022/05/11 01:17:18;;;;;;;8.85;5.60;;;14.20;99.90;;;;;;4932734;29;20047;-92
2022/05/11 01:19:46;;;;;;;9.55;5.95;;;14.20;99.90;;;;;;4950735;29;20526;-91
2022/05/11 01:22:27;;;;;;;9.88;5.80;;;14.20;99.90;;;;;;4933506;29;20051;-89
2022/05/11 01:24:53;;;;;;;10.10;5.72;;;14.20;99.90;;;;;;4946874;28;20071;-92
2022/05/11 01:27:27;;;;;;;9.60;5.50;;;14.20;99.90;;;;;;4936683;29;20077;-91
2022/05/11 01:29:55;;;;;;;9.02;5.70;;;14.20;99.90;;;;;;4954340;29;20095;-91
2022/05/11 01:32:23;;;;;;;9.38;5.40;;;14.20;99.90;;;;;;4953800;29;20058;-91
2022/05/11 01:34:53;;;;;;;11.68;5.85;;;14.20;99.90;;;;;;4954327;29;20075;-91
2022/05/11 01:37:19;;;;;;;9.23;5.65;;;14.20;99.90;;;;;;4937353;29;20047;-91
2022/05/11 01:39:45;;;;;;;9.43;5.30;;;14.20;99.90;;;;;;4936563;29;20058;-91
2022/05/11 01:42:12;;;;;;;11.07;6.30;;;14.20;99.90;;;;;;4953947;29;20051;-91
2022/05/11 01:44:38;;;;;;;10.30;6.30;;;14.20;99.90;;;;;;4932578;29;20091;-91
2022/05/11 01:47:04;;;;;;;9.07;5.60;;;14.20;99.90;;;;;;4953523;29;20082;-91
2022/05/11 01:49:30;;;;;;;9.38;5.68;;;14.20;99.90;;;;;;4938040;29;20105;-90
2022/05/11 01:51:57;;;;;;;11.55;5.88;;;14.10;99.90;;;;;;4953710;29;20051;-90
2022/05/11 01:54:24;;;;;;;10.00;5.97;;;14.10;99.90;;;;;;4937802;29;20059;-91
2022/05/11 01:56:49;;;;;;;10.05;6.40;;;14.10;99.90;;;;;;4976364;29;20032;-91
2022/05/11 01:59:15;;;;;;;10.07;6.18;;;14.10;99.90;;;;;;4960578;29;20464;-91
2022/05/11 02:01:41;;;;;;;13.02;6.57;;;14.10;99.90;;;;;;4953897;28;20090;-93
2022/05/11 02:07:49;;;;;;;11.07;6.43;;;14.10;99.90;;;;;;4952144;29;20077;-91
2022/05/11 02:09:40;;;;;;;9.77;6.05;;;14.10;99.90;;;;;;4932896;29;20567;-92
2022/05/11 02:12:08;;;;;;;10.98;6.22;;;14.10;99.90;;;;;;4921234;29;20056;-91
2022/05/11 02:14:33;;;;;;;9.85;6.65;;;14.10;99.90;;;;;;4955768;28;20146;-90
2022/05/11 02:16:59;;;;;;;10.10;6.35;;;14.10;99.90;;;;;;4956086;29;20867;-91
2022/05/11 02:19:24;;;;;;;10.63;6.63;;;14.10;99.90;;;;;;4949908;29;20107;-91
2022/05/11 02:21:50;;;;;;;10.63;6.63;;;14.10;99.90;;;;;;4934000;29;20100;-92
2022/05/11 02:24:16;;;;;;;10.38;6.55;;;14.10;99.90;;;;;;4918732;29;20438;-92
2022/05/11 02:26:41;;;;;;;12.65;6.70;;;14.20;99.90;;;;;;4921787;29;20544;-92
2022/05/11 02:29:07;;;;;;;9.57;6.40;;;14.10;99.90;;;;;;4937603;29;20047;-93
2022/05/11 02:31:32;;;;;;;10.40;6.95;;;14.10;99.90;;;;;;4953131;29;20043;-92
2022/05/11 02:33:58;;;;;;;10.85;6.35;;;14.10;99.90;;;;;;4941164;29;20083;-91
2022/05/11 02:36:23;;;;;;;10.90;6.68;;;14.20;99.90;;;;;;4934361;29;20062;-92
2022/05/11 02:38:49;;;;;;;12.05;6.32;;;14.20;99.90;;;;;;4949753;29;20047;-91
2022/05/11 02:41:14;;;;;;;10.82;6.40;;;14.20;99.90;;;;;;4951888;29;20090;-91
2022/05/11 02:43:40;;;;;;;11.90;6.13;;;14.20;99.90;;;;;;4934344;29;20047;-92
2022/05/11 02:46:05;;;;;;;10.77;6.38;;;14.20;99.90;;;;;;4953378;29;20433;-92
2022/05/11 02:48:33;;;;;;;10.68;6.72;;;14.20;99.90;;;;;;4952652;29;20047;-92
2022/05/11 02:50:59;;;;;;;8.63;5.70;;;14.20;99.90;;;;;;4950899;29;20050;-92
2022/05/11 02:53:26;;;;;;;10.48;5.93;;;14.20;99.90;;;;;;4943137;29;20050;-92
2022/05/11 02:55:54;;;;;;;9.63;6.15;;;14.20;99.90;;;;;;4933844;29;20068;-91
2022/05/11 02:58:22;;;;;;;10.57;5.60;;;14.20;99.90;;;;;;4944886;29;20043;-92
2022/05/11 03:00:50;;;;;;;10.13;6.13;;;14.20;99.90;;;;;;4934550;29;20043;-91
2022/05/11 03:03:18;;;;;;;10.98;6.50;;;14.20;99.90;;;;;;4952085;29;20436;-92
2022/05/11 03:05:44;;;;;;;9.63;5.80;;;14.20;99.90;;;;;;4925602;29;20044;-91
2022/05/11 03:08:11;;;;;;;11.43;6.00;;;14.20;99.90;;;;;;4933855;29;20560;-91
2022/05/11 03:10:38;;;;;;;9.07;5.45;;;14.20;99.90;;;;;;4943802;29;20086;-92
2022/05/11 03:13:04;;;;;;;11.50;6.35;;;14.20;99.90;;;;;;4950760;29;20043;-93
2022/05/11 03:15:31;;;;;;;10.00;5.80;;;14.20;99.90;;;;;;4949410;29;20062;-92
2022/05/11 03:17:57;;;;;;;10.27;6.03;;;14.20;99.90;;;;;;4938276;29;20086;-91
2022/05/11 03:20:25;;;;;;;10.93;5.57;;;14.20;99.90;;;;;;4933672;29;20075;-92
2022/05/11 03:22:51;;;;;;;10.10;5.43;;;14.20;99.90;;;;;;4946525;29;20047;-93
2022/05/11 03:25:18;;;;;;;8.95;5.50;;;14.20;99.90;;;;;;4950359;29;20043;-91
2022/05/11 03:27:44;;;;;;;10.02;5.45;;;14.20;99.90;;;;;;4931457;29;20051;-93
2022/05/11 03:30:10;;;;;;;10.98;5.45;;;14.20;99.90;;;;;;4935225;29;20106;-92
2022/05/11 03:35:20;;;;;;;8.38;4.93;;;14.20;99.90;;;;;;4952497;29;20050;-91
2022/05/11 03:37:45;;;;;;;9.13;5.10;;;14.20;99.90;;;;;;4951901;29;20047;-93
2022/05/11 03:40:12;;;;;;;10.27;5.40;;;14.20;99.90;;;;;;4952024;29;20058;-92
2022/05/11 03:42:39;;;;;;;9.70;5.80;;;14.30;99.90;;;;;;4931372;29;20420;-92
2022/05/11 03:45:18;;;;;;;9.85;5.43;;;14.20;99.90;;;;;;4933152;29;20044;-93
2022/05/11 03:47:48;;;;;;;9.27;5.13;;;14.20;99.90;;;;;;4931723;29;20091;-92
2022/05/11 03:50:15;;;;;;;9.65;5.30;;;14.20;99.90;;;;;;4932708;29;20047;-92
2022/05/11 03:52:40;;;;;;;11.55;5.60;;;14.20;99.90;;;;;;4948362;29;20039;-91
2022/05/11 03:55:11;;;;;;;10.77;5.47;;;14.20;99.90;;;;;;4945334;28;20516;-92
2022/05/11 03:57:37;;;;;;;9.70;5.68;;;14.20;99.90;;;;;;4931822;29;20047;-92
2022/05/11 04:00:09;;;;;;;10.55;5.43;;;14.20;99.90;;;;;;4932863;29;20251;-93
2022/05/11 04:02:35;;;;;;;9.18;4.93;;;14.20;99.90;;;;;;4931699;29;20496;-91
2022/05/11 04:05:01;;;;;;;10.05;5.22;;;14.20;99.90;;;;;;4932567;29;20054;-91
2022/05/11 04:07:26;;;;;;;11.02;5.72;;;14.20;99.90;;;;;;4933165;29;20040;-93
2022/05/11 04:09:52;;;;;;;9.48;5.20;;;14.20;99.90;;;;;;4932336;29;20051;-92
2022/05/11 04:12:18;;;;;;;10.43;5.05;;;14.20;99.90;;;;;;4931357;29;20067;-94
2022/05/11 04:14:43;;;;;;;9.75;5.35;;;14.20;99.90;;;;;;4931726;29;20491;-92
2022/05/11 04:17:09;;;;;;;9.77;5.50;;;14.20;99.90;;;;;;4931657;29;20039;-92
2022/05/11 04:19:35;;;;;;;10.93;5.30;;;14.30;99.90;;;;;;4932644;29;20047;-92
2022/05/11 04:22:01;;;;;;;10.10;5.50;;;14.30;99.90;;;;;;4931536;29;20051;-93
2022/05/11 04:24:27;;;;;;;9.32;5.53;;;14.30;99.90;;;;;;4918425;29;20060;-93
2022/05/11 04:26:52;;;;;;;9.77;5.70;;;14.30;99.90;;;;;;4931283;29;20058;-91
2022/05/11 04:29:18;;;;;;;10.50;5.72;;;14.30;99.90;;;;;;4924261;29;20043;-93
2022/05/11 04:31:43;;;;;;;9.90;5.70;;;14.30;99.90;;;;;;4912146;29;20048;-91
2022/05/11 04:34:11;;;;;;;11.05;6.55;;;14.30;99.90;;;;;;4922427;29;20051;-90
2022/05/11 04:36:38;;;;;;;10.88;6.20;;;14.30;99.90;;;;;;4931045;29;20051;-89
2022/05/11 04:39:04;;;;;;;10.43;6.20;;;14.30;99.90;;;;;;4898240;29;20560;-91
2022/05/11 04:41:29;;;;;;;12.00;5.82;;;14.30;99.90;;;;;;4935176;29;20055;-95
2022/05/11 04:43:56;;;;;;;10.63;6.28;;;14.30;99.90;;;;;;4933594;29;20056;-93
2022/05/11 04:46:21;;;;;;;14.18;6.57;;;14.40;99.90;;;;;;4935059;29;20048;-95
2022/05/11 04:48:47;;;;;;;13.52;7.00;;;14.40;99.90;;;;;;4919054;29;20048;-94
2022/05/11 04:51:13;;;;;;;11.38;6.63;;;14.40;99.90;;;;;;4900032;29;20505;-96
2022/05/11 04:53:39;;;;;;;10.70;6.72;;;14.40;99.90;;;;;;4915241;29;20482;-95
2022/05/11 04:56:05;;;;;;;10.05;6.20;;;14.40;99.90;;;;;;4931831;29;20050;-94
2022/05/11 04:58:30;;;;;;;12.85;6.20;;;14.40;99.90;;;;;;4935564;29;20043;-94
2022/05/11 05:00:57;;;;;;;11.23;6.57;;;14.40;99.90;;;;;;4934295;29;20047;-94
2022/05/11 05:03:22;;;;;;;11.30;6.70;;;14.40;99.90;;;;;;4921976;29;20567;-96
2022/05/11 05:05:48;;;;;;;10.13;5.90;;;14.50;99.90;;;;;;4925201;29;20079;-95
2022/05/11 05:08:14;;;;;;;9.88;5.28;;;14.40;99.90;;;;;;4916379;29;20465;-93
2022/05/11 05:10:41;;;;;;;10.68;6.32;;;14.40;99.90;;;;;;4917723;29;20050;-93
2022/05/11 05:13:10;;;;;;;10.77;5.97;;;14.40;99.90;;;;;;4918358;29;20128;-94
2022/05/11 05:15:38;;;;;;;11.05;5.95;;;14.50;99.90;;;;;;4918951;29;20417;-94
2022/05/11 05:18:06;;;;;;;8.60;5.28;;;14.50;99.90;;;;;;4902737;29;20077;-94
2022/05/11 05:20:32;;;;;;;11.43;5.78;;;14.50;99.90;;;;;;4929742;29;20050;-93
2022/05/11 05:22:58;;;;;;;10.70;6.10;;;14.50;99.90;;;;;;4929222;29;20072;-93
2022/05/11 05:25:23;;;;;;;11.70;6.35;;;14.50;99.90;;;;;;4925258;29;20052;-96
2022/05/11 05:27:50;;;;;;;11.30;6.38;;;14.60;99.90;;;;;;4937226;29;20055;-94
2022/05/11 05:33:01;;;;;;;10.63;6.10;;;14.70;99.90;;;;;;4915087;29;20088;-95
2022/05/11 05:35:26;;;;;;;11.98;6.30;;;14.70;99.90;;;;;;4912849;29;20058;-95
2022/05/11 05:37:52;;;;;;;11.25;6.50;;;14.70;99.90;;;;;;4919958;29;20123;-95
2022/05/11 05:40:18;;;;;;;11.60;6.50;;;14.80;99.90;;;;;;4921535;29;20040;-92
2022/05/11 05:42:43;;;;;;;11.60;6.68;;;14.80;99.90;;;;;;4913285;29;20059;-91
2022/05/11 05:45:10;;;;;;;10.85;6.40;;;14.90;99.90;;;;;;4939763;29;20095;-95
2022/05/11 05:47:36;;;;;;;9.73;5.97;;;14.90;99.90;;;;;;4954210;28;20055;-95
2022/05/11 05:50:02;;;;;;;11.60;6.90;;;15.00;99.90;;;;;;4974853;28;20051;-94
2022/05/11 05:52:28;;;;;;;12.55;6.60;;;15.00;99.90;;;;;;4955719;29;20047;-95
2022/05/11 05:54:56;;;;;;;11.88;6.60;;;15.00;99.90;;;;;;4938592;29;20085;-94
2022/05/11 05:57:22;;;;;;;11.55;6.47;;;15.10;99.90;;;;;;4955746;29;20054;-94
2022/05/11 05:59:48;;;;;;;13.90;6.32;;;15.10;99.90;;;;;;4955868;29;20055;-94
2022/05/11 06:02:14;;;;;;;10.90;6.30;;;15.10;99.90;;;;;;4939068;29;20078;-92
2022/05/11 06:04:47;;;;;;;13.50;6.65;;;15.20;99.90;;;;;;4955542;29;20047;-95
2022/05/11 06:07:15;;;;;;;10.82;6.03;;;15.20;99.90;;;;;;4938359;29;20591;-95
2022/05/11 06:09:41;;;;;;;11.18;5.93;;;15.20;99.90;;;;;;4959618;29;20043;-95
2022/05/11 06:12:09;;;;;;;12.85;6.10;;;15.30;99.90;;;;;;4959686;28;20034;-96
2022/05/11 06:14:35;;;;;;;12.48;5.60;;;15.30;99.90;;;;;;4964198;29;20035;-96
2022/05/11 06:17:01;;;;;;;12.88;6.10;;;15.30;99.90;;;;;;4961984;28;20507;-94
2022/05/11 06:19:28;;;;;;;12.10;5.93;;;15.30;99.90;;;;;;4958387;29;20106;-96
2022/05/11 06:21:54;;;;;;;12.60;5.28;;;15.40;99.90;;;;;;4960852;29;20126;-95
2022/05/11 06:24:19;;;;;;;11.27;5.50;;;15.40;99.90;;;;;;4963014;29;20496;-94
2022/05/11 06:26:45;;;;;;;10.32;5.30;;;15.40;99.90;;;;;;4945005;29;20058;-92
2022/05/11 06:29:10;;;;;;;10.93;5.10;;;15.50;99.90;;;;;;4928750;29;20035;-95
2022/05/11 06:31:36;;;;;;;9.98;4.95;;;15.50;99.90;;;;;;4955756;29;20055;-93
2022/05/11 06:34:02;;;;;;;9.85;4.60;;;15.50;99.90;;;;;;4956774;29;20047;-96
2022/05/11 06:36:29;;;;;;;9.70;4.75;;;15.60;99.90;;;;;;4959770;29;20134;-94
2022/05/11 06:38:55;;;;;;;10.00;4.88;;;15.60;99.90;;;;;;4959309;29;20451;-94
2022/05/11 06:41:23;;;;;;;10.63;4.47;;;15.70;99.90;;;;;;4940097;29;20059;-96
2022/05/11 06:43:51;;;;;;;8.88;4.60;;;15.80;99.90;;;;;;4920400;29;20175;-95
2022/05/11 06:46:20;;;;;;;8.75;4.15;;;15.80;99.90;;;;;;4905468;29;20059;-93
2022/05/11 06:48:46;;;;;;;9.38;4.30;;;15.90;99.90;;;;;;4922528;29;20146;-94
2022/05/11 06:51:12;;;;;;;9.18;4.25;;;15.90;99.90;;;;;;4943100;29;20082;-95
2022/05/11 06:59:22;;;;;;;8.80;3.90;;;16.10;99.90;;;;;;4918732;29;20051;-90
2022/05/11 07:01:52;;;;;;;8.70;3.65;;;16.10;99.90;;;;;;4944254;29;20087;-94
2022/05/11 07:04:22;;;;;;;8.38;3.38;;;16.10;99.90;;;;;;4940704;29;20039;-95
2022/05/11 07:06:48;;;;;;;9.57;3.55;;;16.20;99.90;;;;;;4959251;29;20086;-93
2022/05/11 07:09:13;;;;;;;10.32;3.47;;;16.20;99.90;;;;;;4933797;29;20066;-96
2022/05/11 07:14:23;;;;;;;10.27;3.67;;;16.20;99.90;;;;;;4952928;29;20051;-90
2022/05/11 07:16:49;;;;;;;9.70;3.25;;;16.30;99.90;;;;;;4951197;29;20043;-90
2022/05/11 07:19:15;;;;;;;8.60;3.67;;;16.30;99.90;;;;;;4955856;29;20424;-92
2022/05/11 07:21:40;;;;;;;10.80;3.22;;;16.40;99.90;;;;;;4952925;28;20043;-94
2022/05/11 07:24:06;;;;;;;9.82;3.60;;;16.40;99.90;;;;;;4925140;29;20041;-94
2022/05/11 07:26:32;;;;;;;6.95;2.78;;;16.50;99.90;;;;;;4942207;29;20066;-94
2022/05/11 07:28:57;;;;;;;10.10;3.20;;;16.60;99.90;;;;;;4961045;29;20027;-92
2022/05/11 07:31:23;;;;;;;8.63;3.08;;;16.60;99.90;;;;;;4952549;29;20393;-93
2022/05/11 07:33:48;;;;;;;9.63;3.20;;;16.70;99.90;;;;;;4938232;29;20043;-93
2022/05/11 07:36:14;;;;;;;11.63;3.40;;;16.70;99.90;;;;;;4954260;29;20045;-90
2022/05/11 07:38:40;;;;;;;9.40;2.92;;;16.70;99.90;;;;;;4954714;29;20037;-93
2022/05/11 07:41:06;;;;;;;8.63;2.70;;;16.70;99.90;;;;;;4956673;29;20114;-93
2022/05/11 07:43:32;;;;;;;8.95;2.50;;;16.80;99.90;;;;;;4968562;29;20063;-95
2022/05/11 07:45:58;;;;;;;9.68;2.70;;;16.90;99.90;;;;;;4969340;28;20062;-88
2022/05/11 07:48:23;;;;;;;9.05;2.70;;;16.90;99.90;;;;;;4937420;29;20043;-94
2022/05/11 07:50:49;;;;;;;8.40;2.50;;;16.80;99.90;;;;;;4943236;29;20047;-93
2022/05/11 07:53:15;;;;;;;8.93;2.30;;;16.80;99.90;;;;;;4949360;29;20446;-93
2022/05/11 07:55:41;;;;;;;9.05;2.40;;;16.80;99.90;;;;;;4918633;29;20046;-88
2022/05/11 08:00:54;;;;;;;7.50;2.28;;;17.00;99.90;;;;;;4948171;29;20055;-85
2022/05/11 08:03:20;;;;;;;7.78;2.05;;;17.00;99.90;;;;;;4949369;29;20043;-88
2022/05/11 08:05:45;;;;;;;8.40;2.75;;;17.10;99.90;;;;;;4932036;29;20079;-87
2022/05/11 08:08:11;;;;;;;10.60;2.35;;;17.10;99.90;;;;;;4933380;29;20489;-87
2022/05/11 08:10:40;;;;;;;10.00;3.05;;;17.10;99.90;;;;;;4951569;29;20489;-88
2022/05/11 08:13:07;;;;;;;8.50;2.08;;;17.20;99.90;;;;;;4934213;29;20057;-87
2022/05/11 08:15:36;;;;;;;9.25;2.15;;;17.20;99.90;;;;;;4934569;29;20444;-86
2022/05/11 08:18:04;;;;;;;8.07;2.65;;;17.30;99.90;;;;;;4932095;29;20147;-88
2022/05/11 08:20:34;;;;;;;8.35;2.00;;;17.40;99.90;;;;;;4930709;29;20206;-93
2022/05/11 08:23:02;;;;;;;7.03;1.90;;;17.50;99.90;;;;;;4934220;29;20500;-90
2022/05/11 08:25:29;;;;;;;7.93;2.17;;;17.60;99.90;;;;;;4951574;29;20039;-89
2022/05/11 08:27:56;;;;;;;8.85;2.83;;;17.70;99.90;;;;;;4944552;29;20403;-88
2022/05/11 08:33:23;;;;;;;8.60;2.58;;;18.00;99.90;;;;;;4954108;28;20051;-88
2022/05/11 08:35:52;;;;;;;8.40;2.10;;;18.00;99.90;;;;;;4942621;29;20051;-90
2022/05/11 08:38:20;;;;;;;8.55;2.10;;;18.10;99.90;;;;;;4959271;29;20047;-89
2022/05/11 08:41:11;;;;;;;8.45;2.10;;;18.10;99.90;;;;;;4954462;29;20055;-92
2022/05/11 08:43:38;;;;;;;6.97;2.05;;;18.10;99.90;;;;;;4948557;29;20056;-90
2022/05/11 08:46:43;;;;;;;12.70;2.42;;;18.20;99.90;;;;;;4950874;29;20448;-92
2022/05/11 08:49:15;;;;;;;7.18;2.13;;;18.30;99.90;;;;;;4947885;29;20059;-89
2022/05/11 08:51:54;;;;;;;8.38;2.13;;;18.40;99.90;;;;;;4953259;29;20381;-91
2022/05/11 08:54:28;;;;;;;9.95;2.08;;;18.50;99.90;;;;;;4952054;29;20136;-89
2022/05/11 08:56:55;;;;;;;8.52;2.25;;;18.80;99.90;;;;;;4937805;29;20043;-87
2022/05/11 08:59:25;;;;;;;7.93;1.90;;;18.90;99.90;;;;;;4918770;29;20138;-92
2022/05/11 09:01:58;;;;;;;8.02;1.90;;;18.90;99.90;;;;;;4932871;29;20500;-92
2022/05/11 09:04:40;;;;;;;7.65;2.22;;;18.90;99.90;;;;;;4950367;28;20051;-89
2022/05/11 09:07:08;;;;;;;8.88;1.88;;;18.90;99.90;;;;;;4954536;29;20118;-90
2022/05/11 09:09:34;;;;;;;6.68;1.65;;;18.80;99.90;;;;;;4949604;29;20147;-90
2022/05/11 09:12:00;;;;;;;8.93;1.90;;;18.80;99.90;;;;;;4935209;29;20067;-88
2022/05/11 09:14:39;;;;;;;8.50;2.30;;;18.80;99.90;;;;;;4953426;29;20048;-89
2022/05/11 09:17:20;;;;;;;9.10;2.00;;;18.80;99.90;;;;;;4954959;29;20130;-89
2022/05/11 09:19:46;;;;;;;10.33;2.73;;;18.80;99.90;;;;;;4953288;29;20361;-92
2022/05/11 09:22:17;;;;;;;8.75;2.22;;;18.80;99.90;;;;;;4940240;29;20496;-92
2022/05/11 09:24:56;;;;;;;7.30;1.88;;;18.80;99.90;;;;;;4957479;29;20067;-91
2022/05/11 09:27:29;;;;;;;11.30;2.40;;;18.70;99.90;;;;;;4907758;29;20042;-92
2022/05/11 09:30:07;;;;;;;8.35;2.00;;;18.70;99.90;;;;;;4956653;28;20123;-89
2022/05/11 09:32:38;;;;;;;9.10;1.80;;;18.60;99.90;;;;;;4957045;29;20435;-92
2022/05/11 09:35:17;;;;;;;;;;;18.70;99.90;;;;;;4956509;29;20058;-93
2022/05/11 09:37:45;;;;;;;7.78;1.88;;;18.60;99.90;;;;;;4956454;29;19923;-93
2022/05/11 09:40:21;;;;;;;6.32;1.65;;;18.70;99.90;;;;;;4962516;29;20043;-90
2022/05/11 09:42:58;;;;;;;8.00;2.00;;;18.70;99.90;;;;;;4967933;29;20102;-93
2022/05/11 09:45:38;;;;;;;7.93;1.48;;;18.80;99.90;;;;;;4939726;29;20066;-90
2022/05/11 09:48:16;;;;;;;11.07;1.90;;;18.80;99.90;;;;;;4956045;29;20070;-91
2022/05/11 09:50:43;;;;;;;5.68;1.48;;;18.90;99.90;;;;;;4955522;29;20117;-91
2022/05/11 09:53:30;;;;;;;5.40;1.52;;;19.00;99.90;;;;;;4955751;28;20043;-90
2022/05/11 09:55:56;;;;;;;7.03;1.50;;;19.10;99.90;;;;;;4939932;29;20130;-91
2022/05/11 09:58:32;;;;;;;7.30;1.45;;;19.10;99.90;;;;;;4936391;29;20098;-92
2022/05/11 10:01:16;;;;;;;6.50;1.40;;;19.20;99.90;;;;;;4937851;29;20051;-90
2022/05/11 10:04:07;;;;;;;7.35;1.67;;;19.30;99.90;;;;;;4933115;29;20058;-92
2022/05/11 10:06:36;;;;;;;7.82;1.67;;;19.30;99.90;;;;;;4955129;29;20058;-91
2022/05/11 10:09:02;;;;;;;8.02;1.60;;;19.30;99.90;;;;;;4937901;29;20051;-92
2022/05/11 10:11:47;;;;;;;8.75;1.80;;;19.30;99.90;;;;;;4939190;29;20477;-93
2022/05/11 10:23:00;;;;;;;6.60;1.60;;;19.30;99.90;;;;;;4954673;29;20054;-92
2022/05/11 10:25:36;;;;;;;7.45;2.05;;;19.30;99.90;;;;;;4941003;29;20399;-91
2022/05/11 10:28:16;;;;;;;8.88;1.80;;;19.40;99.90;;;;;;4938126;29;20555;-92
2022/05/11 10:30:56;;;;;;;7.15;1.52;;;19.50;99.90;;;;;;4938533;29;20074;-94
2022/05/11 10:33:45;;;;;;;7.90;1.85;;;19.40;99.90;;;;;;4937585;29;20044;-92
2022/05/11 10:36:25;;;;;;;5.68;1.63;;;19.60;99.90;;;;;;4956354;29;20043;-92
2022/05/11 10:39:40;;;;;;;7.93;2.03;;;19.60;99.90;;;;;;4945565;29;20038;-96
2022/05/11 10:42:25;;;;;;;8.80;2.10;;;19.70;99.90;;;;;;4841599;29;20430;-89
2022/05/11 10:45:18;;;;;;;6.68;1.65;;;19.60;99.90;;;;;;4839346;29;20053;-93
2022/05/11 10:48:03;;;;;;;7.28;1.60;;;19.60;99.90;;;;;;4858518;29;20460;-90
2022/05/11 10:51:02;;;;;;;7.40;1.60;;;19.50;99.80;;;;;;4876126;29;20110;-93
2022/05/11 10:53:50;;;;;;;6.18;1.63;;;19.50;99.70;;;;;;4860769;29;20057;-94
2022/05/11 10:56:40;;;;;;;6.95;1.73;;;19.60;99.40;;;;;;4861994;29;20056;-89
2022/05/11 10:59:15;;;;;;;5.80;1.50;;;19.60;98.70;;;;;;4859905;29;20049;-94
2022/05/11 11:01:49;;;;;;;6.35;1.30;;;19.60;99.40;;;;;;4862038;29;20117;-89
2022/05/11 11:04:42;;;;;;;7.60;1.95;;;19.70;99.30;;;;;;4846462;29;20049;-95
2022/05/11 11:07:31;;;;;;;6.82;1.73;;;19.80;99.90;;;;;;4861301;29;20072;-91
2022/05/11 11:10:17;;;;;;;6.80;1.70;;;19.80;99.90;;;;;;4863601;29;20063;-93
2022/05/11 11:13:34;;;;;;;5.00;1.40;;;19.80;99.10;;;;;;4879857;29;20125;-93
2022/05/11 11:16:02;;;;;;;7.95;1.75;;;19.80;98.20;;;;;;4817249;29;20047;-94
2022/05/11 11:18:34;;;;;;;8.55;1.58;;;19.80;99.10;;;;;;4820366;29;20133;-93
2022/05/11 11:21:02;;;;;;;7.18;1.92;;;19.90;98.70;;;;;;4852547;29;20156;-91
2022/05/11 11:23:34;;;;;;;8.30;1.77;;;19.90;98.50;;;;;;4860591;29;20049;-92
2022/05/11 11:26:01;;;;;;;5.68;1.63;;;20.00;98.50;;;;;;4861469;29;20107;-95
2022/05/11 11:28:40;;;;;;;9.15;2.00;;;20.00;98.60;;;;;;4842842;29;20105;-90
2022/05/11 11:31:14;;;;;;;7.25;1.85;;;20.00;98.40;;;;;;4857078;29;20189;-86
2022/05/11 11:34:05;;;;;;;9.60;2.38;;;19.90;98.60;;;;;;4840350;29;20076;-91
2022/05/11 11:36:33;;;;;;;9.80;1.98;;;19.90;99.70;;;;;;4853480;29;21002;-92
2022/05/11 11:39:05;;;;;;;8.73;2.10;;;19.90;99.80;;;;;;4846564;29;20060;-89
2022/05/11 11:41:31;;;;;;;8.07;1.70;;;20.00;99.90;;;;;;4852768;29;20140;-92
2022/05/11 11:44:02;;;;;;;9.27;1.70;;;20.10;99.90;;;;;;4864030;29;20053;-91
2022/05/11 11:46:36;;;;;;;;;;;20.20;99.90;;;;;;4855453;29;20049;-95
2022/05/11 11:49:32;;;;;;;8.55;2.10;;;20.10;99.10;;;;;;4892440;28;19932;-91
2022/05/11 11:52:05;;;;;;;10.93;2.13;;;20.10;99.40;;;;;;4937866;29;20047;-89
2022/05/11 11:54:37;;;;;;;9.20;2.20;;;20.10;99.50;;;;;;4966393;28;20131;-92
2022/05/11 11:57:06;;;;;;;8.65;2.22;;;20.10;99.60;;;;;;4943558;29;20114;-91
2022/05/11 11:59:35;;;;;;;6.97;1.88;;;20.00;99.90;;;;;;4935492;29;20058;-91
2022/05/11 12:02:42;;;;;;;8.52;2.08;;;20.10;99.90;;;;;;4955891;29;20087;-92
2022/05/11 12:05:28;;;;;;;7.22;2.03;;;20.10;99.60;;;;;;4936150;29;20058;-93
2022/05/11 12:16:44;;;;;;;7.53;1.70;;;20.40;99.40;;;;;;4875478;29;20045;-90
2022/05/11 12:19:12;;;;;;;9.82;1.92;;;20.40;98.90;;;;;;4875216;29;20049;-87
2022/05/11 12:21:41;;;;;;;7.75;2.28;;;20.30;98.30;;;;;;4875703;29;20587;-92
2022/05/11 12:24:17;;;;;;;9.10;2.50;;;20.30;98.30;;;;;;4883217;29;20109;-94
2022/05/11 12:26:57;;;;;;;7.88;2.15;;;20.30;98.20;;;;;;4880017;29;20044;-92
2022/05/11 12:32:08;;;;;;;6.60;1.70;;;20.50;99.10;;;;;;4858250;29;20767;-90
2022/05/11 12:34:46;;;;;;;9.27;1.80;;;20.60;98.60;;;;;;4842877;29;20072;-90
2022/05/11 12:37:29;;;;;;;9.55;1.92;;;20.70;99.20;;;;;;4849766;29;20474;-87
2022/05/11 12:40:13;;;;;;;8.77;2.25;;;20.70;98.20;;;;;;4834699;29;20045;-93
2022/05/11 12:42:48;;;;;;;9.18;2.38;;;20.70;98.80;;;;;;4857972;29;20061;-89
2022/05/11 12:45:20;;;;;;;9.98;2.30;;;20.70;98.70;;;;;;4858422;29;20475;-87
2022/05/11 12:47:51;;;;;;;9.90;2.33;;;20.70;98.70;;;;;;4872939;29;20049;-88
2022/05/11 12:50:28;;;;;;;9.15;2.42;;;20.60;98.40;;;;;;4899239;29;20066;-87
2022/05/11 12:53:07;;;;;;;7.00;1.85;;;20.70;98.10;;;;;;4932532;29;20552;-91
2022/05/11 12:55:35;;;;;;;9.93;2.83;;;20.60;97.30;;;;;;4934276;29;20073;-87
2022/05/11 12:58:02;;;;;;;9.48;2.10;;;20.60;97.60;;;;;;4950782;29;20039;-87
2022/05/11 13:00:30;;;;;;;7.13;2.20;;;20.50;97.10;;;;;;4950558;29;20445;-88
2022/05/11 13:02:56;;;;;;;13.95;2.53;;;20.50;97.50;;;;;;4933809;29;20054;-89
2022/05/11 13:05:23;;;;;;;10.40;2.38;;;20.50;97.40;;;;;;4951167;29;20106;-86
2022/05/11 13:08:01;;;;;;;11.73;2.60;;;20.60;98.00;;;;;;4932990;29;20058;-89
2022/05/11 13:10:38;;;;;;;8.07;2.13;;;20.50;97.40;;;;;;4945167;29;20059;-88
2022/05/11 13:13:11;;;;;;;9.80;2.50;;;20.50;97.50;;;;;;4950023;29;20043;-87
2022/05/11 13:15:43;;;;;;;9.05;2.15;;;20.50;97.80;;;;;;4950167;29;20136;-90
2022/05/11 13:18:23;;;;;;;11.80;2.33;;;20.50;97.90;;;;;;4952350;29;20047;-94
2022/05/11 13:20:50;;;;;;;8.68;2.45;;;20.50;98.00;;;;;;4935877;29;20397;-89
2022/05/11 13:23:48;;;;;;;9.18;2.30;;;20.50;97.70;;;;;;4948680;29;20127;-89
2022/05/11 13:26:35;;;;;;;12.27;2.72;;;20.50;97.60;;;;;;4946562;29;20507;-86
2022/05/11 13:29:11;;;;;;;9.10;2.40;;;20.50;97.30;;;;;;4937844;29;20501;-94
2022/05/11 13:31:37;;;;;;;11.88;2.53;;;20.60;98.20;;;;;;4939121;29;20055;-92
2022/05/11 13:34:05;;;;;;;9.55;2.55;;;20.60;97.90;;;;;;4933714;29;20441;-89
2022/05/11 13:36:44;;;;;;;9.90;2.72;;;20.60;98.00;;;;;;4936484;29;20052;-92
2022/05/11 13:39:10;;;;;;;12.48;2.85;;;20.60;98.30;;;;;;4940047;29;20535;-91
2022/05/11 13:41:41;;;;;;;10.32;2.10;;;20.60;98.30;;;;;;4958454;29;20393;-91